createdAt,value
2023-01-30T00:01:45.369Z,4.45
2023-01-30T00:03:47.175Z,4.50
2023-01-30T00:05:48.792Z,4.32
2023-01-30T00:07:56.445Z,4.03
2023-01-30T00:10:04.290Z,2.88
2023-01-30T00:12:24.732Z,9.65
2023-01-30T00:14:32.309Z,3.03
2023-01-30T00:16:34.021Z,5.75
2023-01-30T00:18:36.036Z,4.63
2023-01-30T00:20:43.481Z,2.90
2023-01-30T00:23:00.156Z,5.13
2023-01-30T00:25:08.670Z,1.73
2023-01-30T00:27:16.511Z,4.85
2023-01-30T00:29:19.042Z,7.50
2023-01-30T00:31:26.637Z,4.90
2023-01-30T00:33:28.558Z,5.20
2023-01-30T00:35:36.080Z,3.55
2023-01-30T00:37:37.575Z,6.45
2023-01-30T00:39:39.484Z,8.52
2023-01-30T00:42:06.776Z,8.60
2023-01-30T00:44:33.296Z,8.80
2023-01-30T00:49:35.519Z,6.75
2023-01-30T00:51:37.135Z,6.25
2023-01-30T00:53:44.827Z,8.18
2023-01-30T00:56:05.479Z,3.90
2023-01-30T00:58:18.282Z,8.85
2023-01-30T01:00:37.177Z,7.28
2023-01-30T01:02:45.107Z,8.88
2023-01-30T01:05:05.828Z,9.23
2023-01-30T01:07:07.551Z,9.60
2023-01-30T01:09:09.169Z,4.28
2023-01-30T01:11:24.682Z,7.32
2023-01-30T01:13:34.080Z,8.38
2023-01-30T01:15:35.949Z,7.97
2023-01-30T01:17:37.771Z,5.30
2023-01-30T01:19:45.210Z,10.23
2023-01-30T01:21:47.215Z,5.80
2023-01-30T01:23:52.232Z,9.85
2023-01-30T01:25:53.866Z,9.85
2023-01-30T01:28:01.486Z,2.60
2023-01-30T01:30:05.831Z,7.80
2023-01-30T01:32:13.589Z,6.03
2023-01-30T01:34:21.141Z,8.52
2023-01-30T01:38:45.337Z,6.75
2023-01-30T01:41:02.142Z,3.83
2023-01-30T01:43:14.484Z,8.02
2023-01-30T01:45:19.635Z,9.73
2023-01-30T01:47:21.660Z,11.48
2023-01-30T01:49:25.193Z,5.68
2023-01-30T01:51:29.978Z,8.32
2023-01-30T01:53:40.917Z,10.52
2023-01-30T01:55:43.715Z,12.27
2023-01-30T01:57:47.864Z,6.25
2023-01-30T02:01:51.233Z,10.27
2023-01-30T02:03:55.067Z,6.60
2023-01-30T02:05:58.723Z,5.47
2023-01-30T02:08:08.789Z,11.40
2023-01-30T02:10:17.674Z,12.30
2023-01-30T02:12:25.801Z,10.80
2023-01-30T02:14:33.585Z,5.55
2023-01-30T02:16:36.306Z,6.38
2023-01-30T02:18:44.604Z,14.15
2023-01-30T02:20:54.311Z,5.57
2023-01-30T02:23:20.354Z,9.95
2023-01-30T02:25:29.128Z,9.77
2023-01-30T02:29:46.822Z,9.55
2023-01-30T02:31:58.204Z,15.35
2023-01-30T02:34:19.982Z,8.32
2023-01-30T02:36:46.216Z,8.30
2023-01-30T02:38:59.545Z,5.25
2023-01-30T02:41:10.030Z,10.95
2023-01-30T02:43:32.805Z,10.43
2023-01-30T02:45:37.070Z,8.25
2023-01-30T02:49:52.510Z,9.95
2023-01-30T02:52:01.684Z,3.35
2023-01-30T02:54:05.195Z,11.25
2023-01-30T02:56:07.045Z,10.38
2023-01-30T02:58:11.042Z,13.55
2023-01-30T03:00:18.316Z,6.68
2023-01-30T03:02:25.976Z,12.65
2023-01-30T03:04:52.525Z,11.75
2023-01-30T03:07:13.597Z,8.48
2023-01-30T03:09:48.876Z,11.30
2023-01-30T03:12:20.011Z,12.00
2023-01-30T03:14:58.830Z,8.30
2023-01-30T03:17:06.680Z,9.38
2023-01-30T03:19:14.231Z,8.10
2023-01-30T03:21:21.719Z,2.95
2023-01-30T03:23:24.897Z,2.58
2023-01-30T03:25:33.164Z,6.15
2023-01-30T03:27:35.234Z,7.25
2023-01-30T03:29:37.038Z,7.88
2023-01-30T03:31:57.478Z,9.27
2023-01-30T03:34:05.744Z,8.18
2023-01-30T03:36:07.577Z,7.63
2023-01-30T03:38:10.988Z,11.93
2023-01-30T03:40:31.350Z,15.70
2023-01-30T03:42:32.963Z,7.70
2023-01-30T03:44:37.984Z,8.40
2023-01-30T03:46:45.576Z,5.53
2023-01-30T03:49:01.104Z,8.13
2023-01-30T03:51:05.267Z,5.70
2023-01-30T03:53:25.772Z,14.32
2023-01-30T03:55:33.431Z,9.98
2023-01-30T03:57:35.206Z,12.45
2023-01-30T03:59:43.703Z,12.95
2023-01-30T04:01:45.738Z,7.60
2023-01-30T04:03:48.997Z,8.32
2023-01-30T04:06:10.053Z,11.23
2023-01-30T04:08:12.021Z,6.60
2023-01-30T04:10:20.981Z,12.50
2023-01-30T04:12:24.091Z,9.55
2023-01-30T04:14:36.803Z,13.73
2023-01-30T04:16:44.388Z,9.32
2023-01-30T04:18:51.888Z,8.93
2023-01-30T04:20:53.336Z,15.20
2023-01-30T04:23:13.390Z,15.25
2023-01-30T04:25:21.343Z,17.27
2023-01-30T04:27:23.664Z,13.20
2023-01-30T04:29:25.947Z,11.98
2023-01-30T04:31:33.968Z,12.38
2023-01-30T04:33:43.615Z,15.30
2023-01-30T04:35:59.813Z,8.55
2023-01-30T04:38:37.713Z,8.95
2023-01-30T04:40:57.594Z,14.68
2023-01-30T04:43:05.701Z,9.13
2023-01-30T04:45:18.917Z,10.93
2023-01-30T04:47:32.756Z,9.38
2023-01-30T04:49:51.929Z,12.50
2023-01-30T04:52:07.781Z,10.85
2023-01-30T04:54:18.909Z,13.55
2023-01-30T04:56:30.254Z,9.40
2023-01-30T04:58:45.225Z,16.77
2023-01-30T05:01:01.382Z,16.23
2023-01-30T05:03:12.925Z,24.20
2023-01-30T05:05:24.301Z,16.70
2023-01-30T05:07:30.830Z,11.20
2023-01-30T05:09:38.992Z,12.93
2023-01-30T05:11:43.674Z,15.20
2023-01-30T05:13:51.460Z,11.23
2023-01-30T05:15:53.989Z,14.88
2023-01-30T05:17:58.527Z,21.85
2023-01-30T05:20:07.449Z,16.95
2023-01-30T05:22:09.367Z,8.43
2023-01-30T05:24:13.972Z,16.77
2023-01-30T05:26:15.849Z,12.88
2023-01-30T05:28:23.559Z,16.63
2023-01-30T05:30:25.462Z,11.57
2023-01-30T05:32:31.365Z,14.93
2023-01-30T05:34:33.178Z,17.20
2023-01-30T05:36:53.532Z,14.18
2023-01-30T05:39:01.302Z,15.25
2023-01-30T05:41:07.769Z,17.55
2023-01-30T05:43:12.600Z,13.02
2023-01-30T05:45:32.915Z,16.10
2023-01-30T05:47:43.236Z,19.60
2023-01-30T05:49:48.502Z,37.75
2023-01-30T05:51:56.599Z,12.63
2023-01-30T05:54:21.119Z,22.50
2023-01-30T05:56:24.256Z,17.88
2023-01-30T05:58:26.450Z,14.43
2023-01-30T06:00:28.453Z,19.88
2023-01-30T06:02:31.550Z,14.85
2023-01-30T06:04:51.859Z,27.55
2023-01-30T06:06:53.593Z,20.60
2023-01-30T06:09:01.284Z,32.13
2023-01-30T06:11:10.833Z,11.68
2023-01-30T06:13:19.713Z,16.05
2023-01-30T06:15:24.325Z,13.07
2023-01-30T06:17:32.191Z,13.00
2023-01-30T06:19:36.992Z,15.27
2023-01-30T06:21:38.774Z,16.65
2023-01-30T06:23:40.825Z,19.80
2023-01-30T06:25:46.752Z,18.88
2023-01-30T06:27:48.315Z,15.18
2023-01-30T06:30:09.399Z,9.63
2023-01-30T06:32:17.413Z,23.70
2023-01-30T06:34:25.489Z,16.77
2023-01-30T06:36:33.319Z,30.95
2023-01-30T06:38:35.738Z,19.85
2023-01-30T06:40:56.280Z,27.17
2023-01-30T06:43:04.158Z,27.35
2023-01-30T06:45:05.927Z,25.45
2023-01-30T06:47:07.400Z,30.30
2023-01-30T06:49:08.993Z,27.77
2023-01-30T06:51:16.682Z,28.23
2023-01-30T06:53:30.199Z,24.63
2023-01-30T06:55:34.694Z,19.48
2023-01-30T06:57:39.087Z,26.92
2023-01-30T06:59:46.707Z,28.55
2023-01-30T07:01:50.939Z,31.60
2023-01-30T07:03:52.801Z,26.23
2023-01-30T07:06:00.613Z,29.73
2023-01-30T07:08:08.620Z,25.02
2023-01-30T07:10:12.584Z,21.58
2023-01-30T07:12:19.035Z,19.40
2023-01-30T07:14:20.785Z,18.05
2023-01-30T07:16:28.876Z,24.40
2023-01-30T07:18:30.831Z,23.17
2023-01-30T07:20:32.839Z,16.05
2023-01-30T07:22:34.520Z,22.88
2023-01-30T07:24:36.387Z,19.95
2023-01-30T07:26:56.642Z,26.95
2023-01-30T07:28:58.395Z,20.20
2023-01-30T07:31:00.610Z,16.23
2023-01-30T07:33:08.156Z,22.08
2023-01-30T07:35:29.943Z,16.60
2023-01-30T07:37:34.300Z,18.98
2023-01-30T07:39:56.665Z,13.25
2023-01-30T07:42:05.258Z,14.55
2023-01-30T07:44:09.687Z,13.93
2023-01-30T07:46:11.546Z,17.42
2023-01-30T07:48:19.789Z,16.33
2023-01-30T07:50:27.472Z,16.92
2023-01-30T07:52:48.001Z,13.52
2023-01-30T07:54:52.770Z,12.07
2023-01-30T07:56:54.398Z,21.77
2023-01-30T07:59:02.796Z,18.35
2023-01-30T08:01:04.507Z,13.68
2023-01-30T08:03:16.906Z,18.33
2023-01-30T08:05:21.686Z,20.33
2023-01-30T08:07:29.100Z,27.38
2023-01-30T08:09:30.695Z,16.55
2023-01-30T08:11:50.977Z,19.30
2023-01-30T08:13:58.615Z,22.90
2023-01-30T08:16:03.873Z,22.08
2023-01-30T08:18:07.410Z,24.33
2023-01-30T08:20:17.026Z,20.55
2023-01-30T08:22:25.335Z,26.75
2023-01-30T08:24:33.043Z,26.65
2023-01-30T08:26:40.738Z,16.00
2023-01-30T08:28:48.138Z,12.80
2023-01-30T08:30:55.786Z,20.05
2023-01-30T08:33:16.043Z,19.55
2023-01-30T08:35:20.298Z,17.45
2023-01-30T08:37:27.862Z,16.38
2023-01-30T08:39:48.023Z,13.40
2023-01-30T08:41:49.794Z,23.30
2023-01-30T08:43:51.300Z,16.25
2023-01-30T08:45:53.720Z,16.65
2023-01-30T08:48:14.002Z,19.08
2023-01-30T08:50:15.614Z,21.17
2023-01-30T08:52:17.228Z,27.75
2023-01-30T08:54:18.763Z,17.80
2023-01-30T08:58:24.415Z,25.02
2023-01-30T09:00:26.697Z,34.75
2023-01-30T09:02:34.848Z,34.80
2023-01-30T09:04:42.081Z,37.15
2023-01-30T09:06:43.797Z,32.80
2023-01-30T09:08:45.259Z,40.75
2023-01-30T09:10:46.934Z,43.25
2023-01-30T09:12:51.127Z,38.47
2023-01-30T09:14:58.008Z,28.27
2023-01-30T09:17:05.600Z,29.33
2023-01-30T09:19:13.206Z,18.92
2023-01-30T09:21:14.967Z,23.90
2023-01-30T09:23:22.623Z,26.52
2023-01-30T09:25:44.791Z,21.95
2023-01-30T09:27:52.408Z,27.83
2023-01-30T09:29:53.923Z,49.17
2023-01-30T09:31:58.847Z,69.85
2023-01-30T09:34:00.464Z,49.63
2023-01-30T09:36:02.159Z,31.85
2023-01-30T09:38:06.312Z,19.85
2023-01-30T09:40:15.321Z,20.48
2023-01-30T09:42:22.727Z,15.43
2023-01-30T09:44:40.616Z,17.75
2023-01-30T09:46:55.299Z,16.40
2023-01-30T09:49:21.617Z,14.15
2023-01-30T09:51:30.603Z,11.27
2023-01-30T09:53:40.242Z,11.18
2023-01-30T09:55:46.127Z,8.90
2023-01-30T09:57:56.310Z,19.77
2023-01-30T10:00:12.634Z,14.15
2023-01-30T10:02:39.887Z,18.55
2023-01-30T10:05:00.135Z,14.05
2023-01-30T10:07:11.859Z,22.27
2023-01-30T10:09:43.665Z,14.63
2023-01-30T10:11:51.675Z,12.32
2023-01-30T10:14:02.284Z,13.15
2023-01-30T10:16:19.571Z,21.10
2023-01-30T10:18:32.773Z,25.23
2023-01-30T10:20:38.855Z,13.38
2023-01-30T10:23:03.573Z,23.73
2023-01-30T10:25:08.195Z,20.40
2023-01-30T10:27:17.231Z,10.38
2023-01-30T10:31:26.607Z,24.45
2023-01-30T10:35:37.699Z,20.15
2023-01-30T10:37:54.366Z,18.73
2023-01-30T10:40:20.749Z,15.98
2023-01-30T10:42:29.079Z,21.52
2023-01-30T10:44:48.297Z,10.57
2023-01-30T10:47:16.020Z,20.98
2023-01-30T10:49:50.383Z,21.83
2023-01-30T10:52:27.306Z,20.20
2023-01-30T10:54:39.793Z,10.88
2023-01-30T10:57:01.926Z,15.50
2023-01-30T10:59:17.144Z,14.95
2023-01-30T11:01:30.675Z,17.52
2023-01-30T11:03:46.845Z,14.48
2023-01-30T11:05:52.938Z,16.67
2023-01-30T11:08:28.372Z,19.65
2023-01-30T11:10:42.572Z,19.92
2023-01-30T11:13:02.781Z,21.30
2023-01-30T11:15:12.578Z,17.67
2023-01-30T11:17:21.371Z,14.20
2023-01-30T11:19:34.512Z,14.23
2023-01-30T11:21:44.755Z,21.67
2023-01-30T11:23:50.985Z,17.00
2023-01-30T11:26:10.165Z,14.50
2023-01-30T11:28:17.393Z,19.85
2023-01-30T11:30:37.723Z,22.80
2023-01-30T11:32:48.059Z,16.58
2023-01-30T11:35:08.548Z,21.38
2023-01-30T11:37:31.847Z,14.13
2023-01-30T11:39:34.940Z,13.45
2023-01-30T11:41:36.608Z,14.90
2023-01-30T11:43:42.179Z,18.00
2023-01-30T11:45:51.356Z,18.02
2023-01-30T11:47:57.873Z,14.00
2023-01-30T11:50:28.587Z,17.00
2023-01-30T11:52:36.733Z,11.05
2023-01-30T11:54:44.648Z,17.08
2023-01-30T11:56:52.638Z,16.63
2023-01-30T11:58:59.104Z,15.45
2023-01-30T12:01:08.149Z,19.77
2023-01-30T12:03:11.522Z,17.92
2023-01-30T12:05:28.340Z,21.00
2023-01-30T12:07:37.081Z,14.80
2023-01-30T12:09:44.588Z,16.52
2023-01-30T12:13:50.741Z,11.32
2023-01-30T12:15:57.803Z,15.82
2023-01-30T12:18:09.008Z,15.02
2023-01-30T12:20:23.663Z,20.13
2023-01-30T12:22:41.706Z,12.82
2023-01-30T12:24:53.035Z,15.68
2023-01-30T12:26:58.964Z,13.73
2023-01-30T12:29:03.609Z,17.25
2023-01-30T12:31:10.396Z,13.40
2023-01-30T12:33:14.475Z,9.48
2023-01-30T12:35:25.895Z,15.23
2023-01-30T12:38:00.228Z,12.85
2023-01-30T12:40:12.059Z,12.32
2023-01-30T12:42:16.374Z,16.20
2023-01-30T12:47:07.287Z,16.05
2023-01-30T12:49:25.726Z,10.80
2023-01-30T12:51:30.316Z,11.27
2023-01-30T12:53:37.908Z,12.07
2023-01-30T12:56:17.747Z,13.77
2023-01-30T12:58:25.071Z,9.45
2023-01-30T13:00:44.729Z,14.48
2023-01-30T13:02:49.186Z,11.70
2023-01-30T13:05:01.761Z,14.32
2023-01-30T13:09:31.767Z,9.93
2023-01-30T13:11:35.959Z,11.90
2023-01-30T13:13:39.692Z,18.80
2023-01-30T13:15:43.893Z,18.38
2023-01-30T13:17:51.367Z,11.45
2023-01-30T13:19:59.466Z,10.38
2023-01-30T13:22:14.102Z,13.43
2023-01-30T13:24:40.894Z,9.18
2023-01-30T13:26:43.784Z,13.10
2023-01-30T13:29:14.515Z,11.98
2023-01-30T13:31:21.589Z,15.32
2023-01-30T13:33:32.793Z,12.35
2023-01-30T13:35:51.961Z,13.55
2023-01-30T13:38:00.535Z,22.40
2023-01-30T13:40:23.497Z,14.35
2023-01-30T13:43:00.571Z,7.60
2023-01-30T13:45:08.004Z,11.55
2023-01-30T13:47:16.259Z,16.45
2023-01-30T13:49:27.567Z,12.15
2023-01-30T13:52:04.155Z,19.45
2023-01-30T13:54:12.730Z,13.95
2023-01-30T13:56:57.961Z,20.08
2023-01-30T13:59:15.333Z,13.60
2023-01-30T14:01:17.594Z,16.85
2023-01-30T14:03:36.462Z,14.25
2023-01-30T14:06:06.597Z,12.55
2023-01-30T14:08:18.593Z,10.02
2023-01-30T14:10:25.111Z,9.80
2023-01-30T14:12:28.894Z,17.10
2023-01-30T14:14:43.045Z,16.52
2023-01-30T14:16:52.793Z,17.55
2023-01-30T14:18:56.584Z,12.65
2023-01-30T14:21:14.476Z,18.38
2023-01-30T14:23:17.703Z,10.77
2023-01-30T14:25:22.727Z,15.48
2023-01-30T14:27:27.533Z,8.35
2023-01-30T14:29:38.255Z,15.43
2023-01-30T14:31:50.353Z,11.38
2023-01-30T14:33:52.127Z,13.30
2023-01-30T14:36:02.607Z,15.90
2023-01-30T14:38:24.412Z,14.77
2023-01-30T14:40:27.499Z,15.40
2023-01-30T14:42:32.357Z,16.50
2023-01-30T14:44:55.317Z,10.98
2023-01-30T14:46:58.615Z,10.35
2023-01-30T14:49:05.585Z,17.23
2023-01-30T14:51:09.979Z,13.25
2023-01-30T14:55:23.446Z,10.10
2023-01-30T14:57:32.794Z,15.18
2023-01-30T14:59:36.920Z,9.65
2023-01-30T15:01:56.526Z,13.32
2023-01-30T15:03:58.085Z,9.80
2023-01-30T15:05:59.792Z,16.17
2023-01-30T15:08:06.634Z,16.65
2023-01-30T15:10:38.932Z,16.67
2023-01-30T15:13:07.208Z,12.00
2023-01-30T15:15:18.238Z,18.88
2023-01-30T15:17:26.041Z,12.30
2023-01-30T15:19:30.340Z,19.90
2023-01-30T15:21:53.007Z,16.05
2023-01-30T15:24:10.869Z,13.20
2023-01-30T15:26:40.144Z,13.85
2023-01-30T15:29:06.583Z,13.93
2023-01-30T15:31:09.999Z,14.38
2023-01-30T15:33:32.175Z,16.60
2023-01-30T15:35:34.157Z,10.00
2023-01-30T15:37:37.286Z,17.52
2023-01-30T15:39:44.636Z,9.05
2023-01-30T15:41:46.248Z,16.95
2023-01-30T15:44:14.172Z,11.98
2023-01-30T15:46:18.513Z,20.55
2023-01-30T15:48:20.129Z,16.00
2023-01-30T15:50:27.515Z,12.30
2023-01-30T15:52:49.579Z,13.80
2023-01-30T15:54:55.329Z,27.35
2023-01-30T15:56:58.010Z,18.70
2023-01-30T15:59:34.925Z,17.73
2023-01-30T16:01:36.456Z,10.40
2023-01-30T16:03:43.823Z,12.52
2023-01-30T16:05:58.059Z,11.88
2023-01-30T16:10:17.371Z,19.95
2023-01-30T16:12:25.805Z,10.20
2023-01-30T16:14:34.068Z,17.35
2023-01-30T16:16:35.935Z,20.30
2023-01-30T16:18:57.880Z,17.35
2023-01-30T16:21:07.136Z,15.80
2023-01-30T16:23:22.301Z,12.68
2023-01-30T16:25:25.915Z,21.88
2023-01-30T16:27:33.065Z,14.77
2023-01-30T16:29:38.500Z,15.30
2023-01-30T16:32:00.482Z,12.90
2023-01-30T16:34:28.947Z,18.80
2023-01-30T16:36:43.453Z,18.27
2023-01-30T16:42:23.828Z,16.25
2023-01-30T16:44:37.208Z,21.98
2023-01-30T16:46:41.548Z,9.70
2023-01-30T16:48:45.868Z,15.20
2023-01-30T16:50:58.834Z,12.18
2023-01-30T16:53:12.792Z,29.60
2023-01-30T16:55:24.998Z,18.83
2023-01-30T16:57:42.265Z,17.08
2023-01-30T16:59:49.939Z,17.60
2023-01-30T17:02:44.064Z,17.42
2023-01-30T17:04:56.258Z,16.98
2023-01-30T17:07:05.916Z,22.67
2023-01-30T17:09:40.064Z,18.00
2023-01-30T17:14:22.269Z,17.50
2023-01-30T17:16:35.398Z,21.63
2023-01-30T17:18:47.715Z,16.50
2023-01-30T17:20:58.442Z,20.05
2023-01-30T17:23:20.842Z,17.60
2023-01-30T17:25:28.087Z,31.23
2023-01-30T17:27:33.061Z,16.83
2023-01-30T17:29:42.884Z,37.70
2023-01-30T17:31:49.925Z,28.92
2023-01-30T17:33:54.132Z,29.77
2023-01-30T17:35:55.755Z,24.10
2023-01-30T17:38:05.311Z,22.35
2023-01-30T17:40:15.264Z,26.85
2023-01-30T17:42:22.354Z,28.88
2023-01-30T17:44:27.010Z,30.45
2023-01-30T17:46:46.096Z,21.55
2023-01-30T17:48:48.420Z,27.42
2023-01-30T17:51:08.695Z,21.88
2023-01-30T17:53:10.135Z,25.00
2023-01-30T17:57:20.141Z,13.32
2023-01-30T17:59:21.971Z,18.13
2023-01-30T18:01:46.450Z,21.10
2023-01-30T18:03:50.832Z,22.52
2023-01-30T18:05:52.335Z,16.17
2023-01-30T18:07:59.565Z,18.33
2023-01-30T18:10:01.087Z,19.80
2023-01-30T18:12:02.587Z,25.55
2023-01-30T18:14:07.303Z,24.77
2023-01-30T18:16:15.286Z,22.20
2023-01-30T18:18:17.347Z,12.52
2023-01-30T18:20:21.547Z,22.58
2023-01-30T18:22:23.596Z,16.02
2023-01-30T18:24:50.575Z,15.15
2023-01-30T18:26:52.417Z,25.23
2023-01-30T18:28:59.907Z,16.15
2023-01-30T18:31:01.941Z,22.58
2023-01-30T18:33:03.743Z,30.95
2023-01-30T18:35:11.481Z,27.48
2023-01-30T18:37:15.781Z,26.40
2023-01-30T18:39:17.374Z,26.40
2023-01-30T18:43:23.500Z,18.65
2023-01-30T18:45:28.025Z,24.77
2023-01-30T18:47:48.375Z,19.90
2023-01-30T18:49:49.934Z,22.63
2023-01-30T18:51:57.513Z,21.27
2023-01-30T18:53:59.145Z,18.80
2023-01-30T18:56:03.782Z,20.08
2023-01-30T18:58:08.986Z,15.80
2023-01-30T19:00:17.683Z,15.82
2023-01-30T19:02:19.393Z,13.90
2023-01-30T19:04:21.043Z,9.48
2023-01-30T19:06:28.962Z,10.57
2023-01-30T19:08:30.978Z,17.50
2023-01-30T19:10:32.937Z,22.83
2023-01-30T19:12:52.755Z,18.98
2023-01-30T19:14:56.983Z,24.83
2023-01-30T19:17:17.333Z,23.33
2023-01-30T19:19:19.024Z,21.10
2023-01-30T19:21:20.909Z,19.48
2023-01-30T19:23:29.240Z,17.45
2023-01-30T19:25:30.895Z,14.85
2023-01-30T19:27:35.715Z,17.95
2023-01-30T19:29:43.473Z,17.65
2023-01-30T19:31:47.311Z,18.48
2023-01-30T19:34:00.683Z,11.70
2023-01-30T19:36:11.748Z,14.88
2023-01-30T19:38:31.737Z,19.55
2023-01-30T19:40:43.015Z,23.73
2023-01-30T19:42:44.817Z,17.33
2023-01-30T19:44:53.108Z,16.55
2023-01-30T19:47:00.799Z,23.73
2023-01-30T19:49:03.579Z,22.58
2023-01-30T19:51:13.570Z,20.50
2023-01-30T19:53:15.204Z,23.50
2023-01-30T19:57:28.283Z,29.25
2023-01-30T20:01:43.746Z,17.50
2023-01-30T20:03:47.215Z,26.05
2023-01-30T20:05:51.752Z,21.48
2023-01-30T20:08:25.528Z,17.38
2023-01-30T20:10:31.300Z,16.23
2023-01-30T20:12:51.463Z,18.80
2023-01-30T20:15:11.685Z,20.40
2023-01-30T20:17:14.270Z,18.95
2023-01-30T20:19:16.884Z,24.33
2023-01-30T20:21:21.528Z,26.23
2023-01-30T20:23:23.876Z,25.80
2023-01-30T20:25:46.463Z,18.45
2023-01-30T20:28:06.320Z,18.15
2023-01-30T20:30:15.338Z,23.52
2023-01-30T20:34:19.608Z,27.60
2023-01-30T20:36:24.231Z,28.75
2023-01-30T20:38:27.888Z,27.15
2023-01-30T20:40:32.608Z,29.73
2023-01-30T20:42:36.323Z,21.05
2023-01-30T20:44:39.978Z,18.90
2023-01-30T20:46:44.031Z,20.33
2023-01-30T20:48:54.875Z,14.52
2023-01-30T20:51:05.433Z,22.38
2023-01-30T20:53:08.148Z,22.65
2023-01-30T20:55:11.648Z,23.77
2023-01-30T20:57:21.556Z,19.05
2023-01-30T20:59:26.005Z,22.48
2023-01-30T21:01:30.181Z,28.73
2023-01-30T21:03:33.497Z,27.38
2023-01-30T21:05:37.210Z,31.77
2023-01-30T21:07:39.162Z,32.40
2023-01-30T21:09:43.603Z,36.30
2023-01-30T21:11:45.785Z,38.40
2023-01-30T21:13:47.561Z,34.60
2023-01-30T21:15:49.108Z,42.70
2023-01-30T21:20:13.146Z,27.55
2023-01-30T21:22:14.635Z,23.42
2023-01-30T21:24:35.054Z,31.63
2023-01-30T21:26:46.119Z,32.25
2023-01-30T21:28:47.974Z,26.98
2023-01-30T21:30:55.881Z,29.08
2023-01-30T21:32:58.452Z,27.95
2023-01-30T21:35:03.170Z,21.90
2023-01-30T21:37:23.339Z,28.27
2023-01-30T21:39:43.455Z,33.10
2023-01-30T21:42:06.040Z,19.48
2023-01-30T21:44:07.836Z,24.83
2023-01-30T21:46:14.208Z,29.88
2023-01-30T21:48:15.759Z,19.08
2023-01-30T21:50:17.593Z,24.63
2023-01-30T21:52:24.882Z,19.55
2023-01-30T21:54:44.714Z,20.73
2023-01-30T21:56:49.266Z,21.27
2023-01-30T21:58:58.650Z,21.08
2023-01-30T22:01:06.661Z,24.65
2023-01-30T22:03:14.200Z,12.40
2023-01-30T22:05:15.766Z,22.48
2023-01-30T22:07:17.272Z,25.58
2023-01-30T22:09:18.767Z,23.13
2023-01-30T22:11:20.332Z,18.27
2023-01-30T22:13:21.810Z,30.45
2023-01-30T22:17:28.099Z,23.02
2023-01-30T22:19:39.622Z,14.77
2023-01-30T22:21:44.188Z,22.42
2023-01-30T22:23:49.489Z,24.88
2023-01-30T22:25:54.570Z,19.45
2023-01-30T22:28:02.073Z,19.10
2023-01-30T22:30:04.783Z,25.52
2023-01-30T22:32:12.181Z,24.38
2023-01-30T22:34:34.283Z,21.33
2023-01-30T22:36:38.257Z,20.27
2023-01-30T22:38:44.396Z,38.05
2023-01-30T22:41:02.337Z,19.50
2023-01-30T22:43:03.848Z,25.60
2023-01-30T22:45:24.191Z,29.10
2023-01-30T22:47:25.627Z,19.00
2023-01-30T22:49:29.750Z,22.88
2023-01-30T22:51:49.821Z,25.95
2023-01-30T22:54:11.307Z,28.35
2023-01-30T22:56:20.932Z,24.30
2023-01-30T22:58:22.424Z,21.23
2023-01-30T23:00:29.983Z,27.02
2023-01-30T23:02:39.812Z,18.83
2023-01-30T23:04:50.680Z,21.40
2023-01-30T23:07:15.244Z,21.27
2023-01-30T23:09:24.006Z,28.77
2023-01-30T23:11:34.822Z,16.90
2023-01-30T23:13:39.107Z,21.58
2023-01-30T23:15:47.989Z,21.77
2023-01-30T23:18:42.324Z,24.85
2023-01-30T23:20:51.878Z,21.67
2023-01-30T23:22:58.981Z,19.83
2023-01-30T23:25:02.132Z,51.22
2023-01-30T23:27:05.643Z,39.78
2023-01-30T23:29:16.551Z,44.45
2023-01-30T23:31:21.705Z,32.40
2023-01-30T23:33:44.223Z,24.02
2023-01-30T23:35:48.392Z,22.48
2023-01-30T23:38:15.427Z,20.85
2023-01-30T23:40:17.649Z,23.35
2023-01-30T23:42:24.894Z,25.23
2023-01-30T23:46:34.542Z,20.15
2023-01-30T23:48:36.376Z,13.35
2023-01-30T23:50:39.842Z,18.80
2023-01-30T23:52:47.306Z,13.70
2023-01-30T23:54:49.170Z,27.25
2023-01-30T23:56:50.638Z,26.77
2023-01-30T23:58:58.575Z,27.92
